Time;durP1;ratioP1;P1;durP2;ratioP2;P2;SDS_P1;SDS_P2;PMS_P1;PMS_P2;Temp;Humidity;BMP_temperature;BMP_pressure;BME280_temperature;BME280_humidity;BME280_pressure;Samples;Min_cycle;Max_cycle;Signal;HPM_P1;HPM_P2
2023/02/12 05:17:59;;;;;;;3.40;0.40;;;;;;;0.16;56.61;101152.75;102737;1291;600159;-51
2023/02/12 05:20:28;;;;;;;2.30;0.70;;;;;;;0.27;56.41;101155.41;104649;1268;60584;-51
2023/02/12 05:22:56;;;;;;;1.90;0.60;;;;;;;0.22;56.04;101158.30;104573;1269;61691;-50
2023/02/12 05:25:25;;;;;;;5.30;0.60;;;;;;;0.20;55.84;101166.29;104480;1267;71452;-50
2023/02/12 05:27:55;;;;;;;1.70;0.40;;;;;;;0.17;55.51;101174.29;104623;1269;71295;-49
2023/02/12 05:30:24;;;;;;;2.00;0.30;;;;;;;0.15;54.71;101179.34;104565;1266;73671;-51
2023/02/12 05:32:52;;;;;;;1.40;0.40;;;;;;;0.13;54.36;101184.04;104798;1265;59662;-51
2023/02/12 05:35:21;;;;;;;2.40;0.30;;;;;;;0.13;54.76;101190.58;104704;1266;61235;-52
2023/02/12 05:37:49;;;;;;;1.30;0.30;;;;;;;0.09;54.66;101195.35;104750;1268;73311;-52
2023/02/12 05:40:17;;;;;;;2.80;0.80;;;;;;;0.05;54.28;101196.85;104998;1268;70329;-51
2023/02/12 05:42:46;;;;;;;1.50;0.30;;;;;;;0.05;54.61;101210.63;104634;1266;73860;-51
2023/02/12 05:45:14;;;;;;;1.80;0.30;;;;;;;0.00;54.74;101210.75;104831;1265;60587;-51
2023/02/12 05:47:43;;;;;;;3.20;0.60;;;;;;;-0.01;55.01;101224.05;104801;1266;61520;-49
2023/02/12 05:50:13;;;;;;;1.20;0.30;;;;;;;-0.02;55.09;101220.61;104676;1268;74030;-51
2023/02/12 05:52:41;;;;;;;1.90;0.40;;;;;;;0.04;54.87;101234.46;104771;1265;71370;-50
2023/02/12 05:55:10;;;;;;;1.30;0.40;;;;;;;0.01;54.61;101231.08;104829;1266;73689;-50
2023/02/12 05:57:38;;;;;;;1.40;0.20;;;;;;;0.10;55.23;101243.64;104894;1264;61414;-50
2023/02/12 06:00:08;;;;;;;2.80;0.40;;;;;;;0.12;55.57;101248.58;104974;1264;60024;-49
2023/02/12 06:02:39;;;;;;;3.40;0.30;;;;;;;0.17;55.96;101250.73;104785;1268;74011;-51
2023/02/12 06:05:07;;;;;;;1.70;0.60;;;;;;;0.28;55.94;101250.81;104777;1267;71619;-52
2023/02/12 06:07:36;;;;;;;3.20;0.80;;;;;;;0.34;55.91;101254.48;104832;1267;72212;-51
2023/02/12 06:10:05;;;;;;;0.80;0.20;;;;;;;0.41;56.07;101266.58;104764;1265;60548;-51
2023/02/12 06:12:35;;;;;;;3.40;0.70;;;;;;;0.44;56.19;101276.00;104675;1266;61620;-51
2023/02/12 06:15:04;;;;;;;1.80;0.30;;;;;;;0.45;56.60;101282.86;104781;1268;74008;-52
2023/02/12 06:17:33;;;;;;;4.50;0.80;;;;;;;0.43;56.95;101282.41;104959;1268;70411;-51
2023/02/12 06:20:01;;;;;;;2.10;0.70;;;;;;;0.41;56.71;101289.19;104971;1264;72347;-50
2023/02/12 06:22:30;;;;;;;3.80;0.60;;;;;;;0.40;57.10;101296.64;105026;1261;60209;-50
2023/02/12 06:24:59;;;;;;;3.80;0.70;;;;;;;0.37;57.25;101306.19;104989;1265;61319;-49
2023/02/12 06:27:28;;;;;;;2.30;0.50;;;;;;;0.39;56.37;101299.92;105029;1265;76402;-50
2023/02/12 06:29:56;;;;;;;1.90;0.40;;;;;;;0.38;56.44;101297.20;104991;1265;71367;-49
2023/02/12 06:32:25;;;;;;;4.00;0.90;;;;;;;0.39;56.82;101315.80;105033;1265;72179;-51
2023/02/12 06:34:53;;;;;;;3.50;0.80;;;;;;;0.33;56.12;101311.64;105039;1263;60259;-51
2023/02/12 06:37:23;;;;;;;1.90;0.40;;;;;;;0.16;53.59;101300.96;105188;1263;61075;-50
2023/02/12 06:39:51;;;;;;;2.20;0.40;;;;;;;0.13;53.60;101306.88;104976;1265;74172;-49
2023/02/12 06:42:20;;;;;;;0.90;0.30;;;;;;;0.08;53.88;101315.97;104986;1263;71536;-50
2023/02/12 06:44:49;;;;;;;2.30;0.60;;;;;;;0.05;54.27;101323.11;105019;1267;72671;-51
2023/02/12 06:47:20;;;;;;;2.20;0.60;;;;;;;0.02;54.57;101321.11;105660;1256;59922;-53
2023/02/12 06:49:48;;;;;;;1.70;0.50;;;;;;;-0.02;54.31;101327.58;105474;1259;60489;-52
2023/02/12 06:52:20;;;;;;;4.20;1.50;;;;;;;-0.03;54.81;101328.96;105400;1259;74024;-50
2023/02/12 06:54:48;;;;;;;3.20;0.50;;;;;;;-0.03;54.58;101328.97;105653;1259;69302;-49
2023/02/12 06:57:17;;;;;;;2.70;0.50;;;;;;;-0.04;53.75;101333.83;105481;1253;76598;-51
2023/02/12 06:59:47;;;;;;;3.60;1.20;;;;;;;0.02;54.26;101338.00;105513;1254;61153;-51
2023/02/12 07:02:16;;;;;;;4.00;0.60;;;;;;;0.04;53.75;101346.27;105445;1253;60981;-50
2023/02/12 07:04:44;;;;;;;1.90;0.80;;;;;;;0.07;53.71;101347.41;105619;1259;74367;-50
2023/02/12 07:07:13;;;;;;;3.30;0.60;;;;;;;0.09;54.37;101352.36;105552;1259;69749;-51
2023/02/12 07:09:41;;;;;;;2.90;0.50;;;;;;;0.05;53.72;101348.64;105701;1255;73422;-50
2023/02/12 07:12:09;;;;;;;3.30;0.90;;;;;;;0.05;53.36;101350.89;105586;1256;61056;-54
2023/02/12 07:14:39;;;;;;;2.70;0.60;;;;;;;0.12;53.92;101356.45;105605;1253;61447;-53
2023/02/12 07:17:08;;;;;;;3.40;0.90;;;;;;;0.15;54.04;101358.95;105429;1258;73912;-51
2023/02/12 07:19:39;;;;;;;2.40;0.70;;;;;;;0.18;53.63;101365.29;105579;1253;71269;-52
2023/02/12 07:22:08;;;;;;;3.60;0.90;;;;;;;0.26;53.85;101370.98;105516;1257;73661;-52
2023/02/12 07:24:38;;;;;;;3.60;0.80;;;;;;;0.26;53.74;101367.18;105557;1253;60282;-52
2023/02/12 07:27:10;;;;;;;4.50;1.20;;;;;;;0.31;53.49;101372.42;105544;1259;60391;-52
2023/02/12 07:29:38;;;;;;;4.40;1.00;;;;;;;0.36;53.64;101381.29;105505;1258;74011;-50
2023/02/12 07:32:07;;;;;;;3.40;0.60;;;;;;;0.33;53.01;101379.81;105580;1257;71272;-50
2023/02/12 07:34:36;;;;;;;3.10;0.90;;;;;;;0.31;53.06;101390.38;105587;1259;73431;-51
2023/02/12 07:37:06;;;;;;;3.50;1.80;;;;;;;0.31;54.03;101394.17;105671;1253;59683;-53
2023/02/12 07:39:34;;;;;;;3.60;0.70;;;;;;;0.28;53.96;101386.98;105542;1259;61264;-49
2023/02/12 07:42:03;;;;;;;2.60;0.40;;;;;;;0.26;54.45;101390.31;105470;1254;73854;-49
2023/02/12 07:44:35;;;;;;;2.10;0.70;;;;;;;0.31;55.01;101403.50;105477;1257;70588;-49
2023/02/12 07:47:04;;;;;;;3.10;0.60;;;;;;;0.32;54.93;101394.48;105582;1258;73720;-51
2023/02/12 07:49:33;;;;;;;3.90;1.00;;;;;;;0.39;54.71;101408.35;105559;1254;60655;-50
2023/02/12 07:52:02;;;;;;;2.00;0.70;;;;;;;0.42;53.49;101400.33;105368;1253;60158;-50
2023/02/12 07:54:31;;;;;;;6.70;2.00;;;;;;;0.43;52.79;101408.60;105393;1258;74250;-51
2023/02/12 07:57:00;;;;;;;2.90;0.60;;;;;;;0.37;52.63;101418.21;105479;1257;70061;-49
2023/02/12 07:59:30;;;;;;;3.70;1.00;;;;;;;0.32;52.40;101413.31;105193;1258;73999;-48
2023/02/12 08:01:59;;;;;;;4.10;1.20;;;;;;;0.32;52.32;101422.10;105443;1258;60476;-49
2023/02/12 08:04:28;;;;;;;2.90;0.50;;;;;;;0.35;51.87;101417.74;105422;1255;60492;-49
2023/02/12 08:06:57;;;;;;;1.60;0.40;;;;;;;0.39;52.00;101427.84;105517;1254;73800;-52
2023/02/12 08:09:27;;;;;;;3.90;0.80;;;;;;;0.42;52.23;101429.52;105597;1255;71252;-49
2023/02/12 08:11:55;;;;;;;2.30;0.60;;;;;;;0.39;51.14;101413.51;105576;1259;72730;-52
2023/02/12 08:14:26;;;;;;;4.50;0.70;;;;;;;0.43;51.56;101434.31;105538;1254;59659;-49
2023/02/12 08:16:54;;;;;;;2.90;0.50;;;;;;;0.48;52.05;101438.34;105550;1258;61183;-52
2023/02/12 08:19:23;;;;;;;3.30;0.80;;;;;;;0.55;52.76;101443.56;105450;1259;74041;-53
2023/02/12 08:21:55;;;;;;;2.10;0.40;;;;;;;0.59;52.78;101449.86;105376;1256;70056;-51
2023/02/12 08:24:24;;;;;;;3.30;0.80;;;;;;;0.63;52.79;101443.90;105512;1260;73698;-51
2023/02/12 08:26:52;;;;;;;2.40;0.90;;;;;;;0.61;52.47;101452.06;105580;1254;59685;-50
2023/02/12 08:29:23;;;;;;;2.90;0.90;;;;;;;0.68;53.05;101457.27;105547;1257;61121;-51
2023/02/12 08:31:56;;;;;;;1.90;0.30;;;;;;;0.73;52.91;101455.09;105541;1257;74160;-51
2023/02/12 08:34:27;;;;;;;2.20;0.50;;;;;;;0.74;52.42;101453.68;105936;1257;74390;-50
2023/02/12 08:36:56;;;;;;;4.60;1.40;;;;;;;0.80;52.75;101457.70;105859;1258;72690;-52
2023/02/12 08:39:26;;;;;;;2.80;0.60;;;;;;;0.83;52.76;101466.09;105880;1254;59772;-52
2023/02/12 08:41:56;;;;;;;3.40;0.60;;;;;;;0.92;51.97;101475.23;105797;1257;62117;-50
2023/02/12 08:44:24;;;;;;;3.40;1.20;;;;;;;0.97;51.28;101477.02;105874;1260;74179;-51
2023/02/12 08:46:54;;;;;;;3.00;0.60;;;;;;;0.99;50.68;101482.33;105909;1258;71369;-49
2023/02/12 08:49:25;;;;;;;2.30;0.60;;;;;;;1.02;50.42;101483.64;105877;1265;73429;-50
2023/02/12 08:51:54;;;;;;;3.10;0.70;;;;;;;1.06;50.52;101480.43;105569;1254;60552;-50
2023/02/12 08:54:28;;;;;;;1.80;0.40;;;;;;;1.06;49.95;101493.41;105413;1255;61214;-49
2023/02/12 08:56:57;;;;;;;2.70;0.30;;;;;;;1.05;49.70;101503.61;105563;1259;73939;-49
2023/02/12 08:59:25;;;;;;;4.10;1.00;;;;;;;1.03;49.20;101507.98;105534;1257;70029;-51
2023/02/12 09:01:59;;;;;;;2.40;0.70;;;;;;;1.03;49.24;101499.16;105287;1259;73791;-51
2023/02/12 09:04:29;;;;;;;3.70;0.60;;;;;;;1.01;48.89;101509.56;105329;1259;60677;-53
2023/02/12 09:06:58;;;;;;;2.00;0.70;;;;;;;1.03;49.05;101512.98;105538;1255;61011;-53
2023/02/12 09:09:26;;;;;;;9.40;4.30;;;;;;;1.03;48.55;101509.55;105424;1253;74019;-53
2023/02/12 09:28:17;;;;;;;5.30;0.80;;;;;;;1.52;48.39;101518.21;102327;1293;603756;-55
2023/02/12 09:30:45;;;;;;;3.60;0.90;;;;;;;1.90;48.23;101522.70;104540;1267;89172;-54
2023/02/12 09:33:13;;;;;;;2.30;0.70;;;;;;;1.87;48.20;101513.58;104844;1264;60964;-53
2023/02/12 09:35:42;;;;;;;2.80;0.90;;;;;;;1.82;48.07;101518.90;105359;1257;73161;-53
2023/02/12 09:38:11;;;;;;;6.10;1.80;;;;;;;1.83;47.89;101523.73;105280;1257;70828;-55
2023/02/12 09:40:56;;;;;;;2.90;0.60;;;;;;;1.88;48.17;101528.29;105367;1257;73341;-54
2023/02/12 09:44:09;;;;;;;4.70;1.40;;;;;;;1.86;47.69;101526.75;105236;1258;60443;-51
2023/02/12 09:46:46;;;;;;;3.30;0.80;;;;;;;1.77;47.05;101533.22;105237;1257;59959;-50
2023/02/12 09:49:22;;;;;;;4.70;0.90;;;;;;;1.69;47.33;101527.55;105294;1257;72196;-53
2023/02/12 09:51:52;;;;;;;2.40;0.40;;;;;;;1.62;47.37;101526.31;105412;1261;70395;-50
2023/02/12 09:54:22;;;;;;;2.00;0.80;;;;;;;1.60;47.61;101527.92;105363;1262;75268;-51
2023/02/12 09:56:58;;;;;;;4.90;1.90;;;;;;;1.57;47.42;101528.19;105281;1257;60557;-53
2023/02/12 09:59:34;;;;;;;3.50;1.80;;;;;;;1.54;47.69;101524.45;105248;1257;61022;-53
2023/02/12 10:02:14;;;;;;;8.30;4.20;;;;;;;1.52;47.30;101523.79;105302;1257;74018;-53
2023/02/12 10:04:44;;;;;;;5.10;1.30;;;;;;;1.60;47.74;101522.91;105413;1258;71547;-54
2023/02/12 10:07:37;;;;;;;4.60;2.10;;;;;;;1.69;47.71;101518.19;105213;1257;73407;-54
2023/02/12 10:10:24;;;;;;;3.70;1.20;;;;;;;1.74;47.29;101520.66;105641;1254;60555;-52
2023/02/12 10:13:31;;;;;;;3.90;0.90;;;;;;;1.81;46.55;101516.84;105534;1254;61365;-53
2023/02/12 10:16:15;;;;;;;3.90;1.20;;;;;;;1.86;46.49;101510.30;105377;1259;65636;-52
2023/02/12 10:19:01;;;;;;;4.10;0.90;;;;;;;1.91;45.85;101510.38;105739;1253;71293;-53
2023/02/12 10:21:58;;;;;;;2.40;0.50;;;;;;;1.97;46.12;101517.30;105610;1255;72403;-53
2023/02/12 10:24:48;;;;;;;3.30;0.70;;;;;;;2.03;46.31;101516.45;105438;1256;59618;-54
2023/02/12 10:27:21;;;;;;;3.30;1.10;;;;;;;2.07;46.27;101511.19;105514;1254;61025;-52
2023/02/12 10:29:49;;;;;;;1.50;0.40;;;;;;;2.10;45.58;101515.58;105584;1260;73640;-53
2023/02/12 10:32:26;;;;;;;4.40;0.70;;;;;;;2.21;46.04;101526.90;105600;1254;71422;-52
2023/02/12 10:34:55;;;;;;;3.50;0.80;;;;;;;2.31;44.43;101524.55;105430;1259;71414;-53
2023/02/12 10:37:57;;;;;;;2.90;0.50;;;;;;;2.40;43.48;101524.29;105531;1256;59641;-54
2023/02/12 10:40:28;;;;;;;3.20;0.80;;;;;;;2.49;43.04;101530.63;109144;1254;57501;-54
2023/02/12 10:42:57;;;;;;;7.10;3.70;;;;;;;2.57;42.71;101532.84;109284;1254;73715;-55
2023/02/12 10:45:30;;;;;;;14.10;7.30;;;;;;;2.65;42.82;101534.01;109194;1254;70255;-54
2023/02/12 10:48:13;;;;;;;6.20;2.20;;;;;;;2.65;41.67;101527.41;107844;1254;73639;-53
2023/02/12 10:51:07;;;;;;;8.20;4.00;;;;;;;2.65;41.96;101539.35;105522;1254;60332;-53
2023/02/12 10:53:42;;;;;;;2.70;0.90;;;;;;;2.70;41.68;101540.28;105454;1253;59763;-53
2023/02/12 10:56:10;;;;;;;2.60;0.80;;;;;;;2.70;41.53;101543.90;105314;1257;73990;-53
2023/02/12 10:58:51;;;;;;;3.60;0.60;;;;;;;2.75;41.81;101552.40;105548;1257;69780;-52
2023/02/12 11:01:21;;;;;;;2.00;0.60;;;;;;;2.79;40.97;101552.48;105478;1254;73299;-53
2023/02/12 11:03:49;;;;;;;3.10;0.70;;;;;;;2.82;40.75;101560.04;105503;1257;59557;-54
2023/02/12 11:06:23;;;;;;;3.60;1.10;;;;;;;2.84;41.06;101568.11;105313;1259;60285;-52
2023/02/12 11:08:53;;;;;;;15.00;10.30;;;;;;;2.83;40.48;101565.55;105399;1254;72714;-51
2023/02/12 11:11:29;;;;;;;4.10;2.00;;;;;;;2.80;40.84;101567.36;105481;1258;71696;-53
2023/02/12 11:14:02;;;;;;;4.40;1.90;;;;;;;2.77;40.00;101571.25;105611;1259;72621;-54
2023/02/12 11:16:36;;;;;;;7.80;4.40;;;;;;;2.77;40.66;101587.70;105559;1259;60789;-54
2023/02/12 11:19:18;;;;;;;3.70;1.30;;;;;;;2.80;40.74;101579.84;105556;1254;60097;-53
2023/02/12 11:21:46;;;;;;;1.20;0.30;;;;;;;2.86;41.10;101584.86;105292;1256;73715;-54
2023/02/12 11:24:32;;;;;;;3.40;0.70;;;;;;;2.89;41.09;101590.85;105759;1254;71008;-53
2023/02/12 11:27:19;;;;;;;4.00;1.60;;;;;;;2.91;40.29;101590.79;105810;1254;72605;-52
2023/02/12 11:29:50;;;;;;;4.20;1.60;;;;;;;2.92;40.32;101585.90;105891;1254;60563;-54
2023/02/12 11:32:18;;;;;;;5.10;1.80;;;;;;;2.99;40.84;101584.48;105520;1253;61326;-52
2023/02/12 11:35:09;;;;;;;5.10;1.90;;;;;;;3.05;39.95;101577.93;105665;1257;73294;-54
2023/02/12 11:37:42;;;;;;;2.50;0.60;;;;;;;3.12;40.68;101573.02;105368;1254;71199;-52
2023/02/12 11:40:23;;;;;;;4.70;0.70;;;;;;;3.21;40.00;101577.44;105497;1257;72140;-53
2023/02/12 11:42:56;;;;;;;2.70;0.90;;;;;;;3.31;39.94;101577.13;105629;1254;60626;-50
2023/02/12 11:45:29;;;;;;;11.60;6.50;;;;;;;3.31;39.24;101575.55;105398;1254;61039;-49
2023/02/12 11:47:57;;;;;;;23.00;14.80;;;;;;;3.31;39.41;101582.31;105471;1254;72866;-51
2023/02/12 11:50:28;;;;;;;14.70;10.00;;;;;;;3.33;38.39;101581.05;105458;1254;71300;-52
2023/02/12 11:53:02;;;;;;;5.90;2.70;;;;;;;3.36;38.53;101580.95;105460;1254;73416;-51
2023/02/12 11:55:32;;;;;;;10.50;5.60;;;;;;;3.33;38.51;101581.56;105464;1259;59609;-51
2023/02/12 11:58:19;;;;;;;7.50;2.40;;;;;;;3.28;38.24;101580.00;105370;1256;61359;-50
2023/02/12 12:01:01;;;;;;;2.00;0.50;;;;;;;3.25;37.19;101585.80;105649;1254;74075;-51
2023/02/12 12:03:55;;;;;;;2.10;0.60;;;;;;;3.17;37.46;101583.79;105585;1254;70944;-50
2023/02/12 12:06:44;;;;;;;5.00;1.20;;;;;;;3.13;37.38;101581.31;105443;1259;73470;-51
2023/02/12 12:09:16;;;;;;;3.40;0.90;;;;;;;3.16;38.20;101586.94;105344;1254;60855;-51
2023/02/12 12:12:24;;;;;;;1.40;0.40;;;;;;;3.20;37.84;101583.69;105481;1256;59506;-51
2023/02/12 12:21:17;;;;;;;1.90;0.70;;;;;;;3.28;37.12;101576.54;105272;1261;63766;-52
2023/02/12 12:23:56;;;;;;;6.10;1.50;;;;;;;3.32;37.30;101581.09;105569;1254;60353;-51
2023/02/12 12:26:28;;;;;;;2.90;0.90;;;;;;;3.36;36.81;101578.69;105340;1259;61339;-50
2023/02/12 12:29:01;;;;;;;1.40;0.40;;;;;;;3.42;36.95;101577.31;105438;1255;73037;-50
2023/02/12 12:31:37;;;;;;;3.20;0.40;;;;;;;3.46;37.00;101579.44;105531;1259;70918;-49
2023/02/12 12:34:10;;;;;;;;;;;;;;;3.52;37.06;101589.14;105507;1254;73371;-51
2023/02/12 12:36:57;;;;;;;2.90;0.50;;;;;;;3.54;36.49;101582.98;105868;1254;59745;-51
2023/02/12 12:39:53;;;;;;;5.10;1.10;;;;;;;3.62;37.04;101590.39;105535;1254;61655;-51
2023/02/12 12:43:04;;;;;;;3.30;1.30;;;;;;;3.71;36.42;101588.01;105563;1259;74755;-52
2023/02/12 12:46:03;;;;;;;11.70;7.90;;;;;;;3.79;35.71;101592.65;105466;1254;71377;-53
2023/02/12 12:48:38;;;;;;;9.40;5.40;;;;;;;3.79;35.40;101597.30;105408;1254;72712;-54
2023/02/12 12:51:15;;;;;;;13.60;6.90;;;;;;;3.79;35.30;101596.95;105479;1254;59618;-51
2023/02/12 12:54:09;;;;;;;6.10;3.10;;;;;;;3.87;35.04;101598.09;105473;1257;60210;-52
2023/02/12 13:16:48;;;;;;;4.50;1.10;;;;;;;10.86;24.28;101606.21;102083;1295;613879;-54
2023/02/12 13:19:43;;;;;;;5.70;1.00;;;;;;;11.35;23.66;101617.85;104374;1266;88938;-51
2023/02/12 13:22:36;;;;;;;5.90;2.50;;;;;;;11.30;23.38;101617.98;104359;1267;60904;-52
2023/02/12 13:25:20;;;;;;;14.40;7.30;;;;;;;11.16;22.90;101615.86;104583;1266;74961;-53
2023/02/12 13:27:49;;;;;;;5.60;1.30;;;;;;;11.28;23.99;101619.16;104705;1266;70268;-52
2023/02/12 13:30:18;;;;;;;5.00;1.30;;;;;;;11.74;24.52;101628.05;104422;1267;73658;-53
2023/02/12 13:32:59;;;;;;;11.80;4.80;;;;;;;12.30;24.19;101634.04;104526;1269;60582;-53
2023/02/12 13:35:33;;;;;;;7.60;3.00;;;;;;;12.71;23.42;101629.46;104500;1265;61346;-52
2023/02/12 13:38:02;;;;;;;5.10;1.60;;;;;;;12.86;23.32;101639.34;104806;1267;73151;-52
2023/02/12 13:40:31;;;;;;;8.50;2.60;;;;;;;12.96;23.15;101643.26;104476;1267;71143;-52
2023/02/12 13:43:08;;;;;;;11.80;4.30;;;;;;;12.93;23.12;101645.41;104575;1263;74810;-53
2023/02/12 13:46:12;;;;;;;8.90;4.00;;;;;;;12.82;22.71;101648.06;104790;1263;61250;-52
2023/02/12 13:49:03;;;;;;;4.10;1.30;;;;;;;12.70;23.07;101652.41;104678;1263;61017;-53
2023/02/12 13:51:37;;;;;;;10.90;4.10;;;;;;;12.64;22.86;101656.17;104614;1264;72786;-53
2023/02/12 13:54:15;;;;;;;14.90;7.70;;;;;;;11.73;23.44;101657.20;104764;1263;71175;-52
2023/02/12 13:56:50;;;;;;;6.70;2.10;;;;;;;11.34;23.90;101656.02;104632;1264;73506;-53
2023/02/12 13:59:31;;;;;;;31.60;14.40;;;;;;;11.01;23.69;101660.89;104830;1263;60346;-54
2023/02/12 14:02:22;;;;;;;9.90;3.90;;;;;;;10.93;23.86;101662.40;104707;1264;61579;-53
2023/02/12 14:04:58;;;;;;;7.80;2.40;;;;;;;10.95;24.09;101673.20;104634;1263;74140;-52
2023/02/12 14:07:44;;;;;;;14.00;6.70;;;;;;;11.17;24.30;101676.92;105077;1264;70357;-53
2023/02/12 14:10:25;;;;;;;9.70;4.40;;;;;;;11.50;23.72;101674.35;104841;1266;73676;-52
2023/02/12 14:12:57;;;;;;;32.80;18.70;;;;;;;11.60;23.71;101683.77;104961;1263;61342;-53
2023/02/12 14:15:33;;;;;;;20.20;10.40;;;;;;;11.53;23.86;101685.77;105073;1264;61316;-51
2023/02/12 14:18:01;;;;;;;12.80;7.50;;;;;;;11.35;23.85;101694.95;105005;1269;74364;-53
2023/02/12 14:20:34;;;;;;;9.50;4.40;;;;;;;11.17;23.90;101692.02;105145;1264;71235;-54
2023/02/12 14:23:30;;;;;;;10.20;4.20;;;;;;;10.59;24.21;101693.41;105027;1266;74079;-51
2023/02/12 14:26:05;;;;;;;24.50;13.90;;;;;;;9.38;25.32;101694.92;105013;1263;59664;-53
2023/02/12 14:28:45;;;;;;;17.50;11.00;;;;;;;8.32;26.43;101689.34;105032;1264;61314;-52
2023/02/12 14:31:16;;;;;;;11.20;5.90;;;;;;;7.95;27.29;101690.44;104922;1266;73822;-53
2023/02/12 14:33:50;;;;;;;7.90;3.00;;;;;;;8.13;27.22;101695.69;105042;1264;71220;-52
2023/02/12 14:36:30;;;;;;;18.20;11.10;;;;;;;8.47;26.91;101696.34;105348;1262;72201;-52
2023/02/12 14:39:26;;;;;;;15.10;6.40;;;;;;;8.46;26.58;101700.56;105113;1262;60090;-52
2023/02/12 14:42:04;;;;;;;10.00;5.70;;;;;;;7.77;27.19;101700.86;104999;1264;59688;-52
2023/02/12 14:44:57;;;;;;;9.10;5.00;;;;;;;6.98;28.29;101702.20;105544;1259;65088;-51
2023/02/12 14:47:28;;;;;;;14.90;5.30;;;;;;;6.18;29.29;101711.11;105570;1254;66498;-52
2023/02/12 14:50:06;;;;;;;5.90;1.70;;;;;;;5.65;30.19;101720.67;105465;1254;64999;-53
2023/02/12 14:52:38;;;;;;;7.20;3.50;;;;;;;5.20;31.10;101727.20;105551;1254;60014;-52
2023/02/12 14:55:17;;;;;;;4.80;1.90;;;;;;;4.79;31.55;101727.06;105292;1254;59733;-52
2023/02/12 14:57:47;;;;;;;4.50;1.80;;;;;;;4.47;31.91;101730.91;105623;1254;65610;-53
2023/02/12 15:00:15;;;;;;;12.60;8.30;;;;;;;4.20;32.43;101731.44;105238;1259;62601;-51
2023/02/12 15:02:46;;;;;;;4.50;1.80;;;;;;;3.97;33.07;101733.54;105431;1259;65128;-52
2023/02/12 15:05:22;;;;;;;9.30;4.40;;;;;;;3.79;33.44;101735.64;105433;1254;59701;-52
2023/02/12 15:08:21;;;;;;;13.60;9.90;;;;;;;3.60;33.64;101742.10;105347;1259;60580;-52
2023/02/12 15:10:53;;;;;;;5.40;2.50;;;;;;;3.43;33.97;101749.54;105123;1254;64601;-52
2023/02/12 15:13:52;;;;;;;11.70;6.30;;;;;;;3.24;34.30;101750.23;105530;1258;61304;-51
2023/02/12 15:16:38;;;;;;;4.70;1.80;;;;;;;3.11;34.54;101751.98;105420;1259;64846;-52
2023/02/12 15:19:15;;;;;;;6.30;2.60;;;;;;;2.97;34.63;101755.10;105363;1257;59768;-52
2023/02/12 15:21:45;;;;;;;22.20;5.80;;;;;;;2.86;34.59;101764.77;105527;1259;59653;-53
2023/02/12 15:24:20;;;;;;;8.90;2.80;;;;;;;2.80;34.59;101772.37;105457;1254;65442;-54
2023/02/12 15:26:53;;;;;;;3.40;1.20;;;;;;;2.72;34.76;101775.52;105254;1254;62501;-52
2023/02/12 15:29:54;;;;;;;6.80;3.20;;;;;;;2.66;34.74;101777.05;105633;1254;64930;-53
2023/02/12 15:32:27;;;;;;;5.50;2.00;;;;;;;2.58;34.61;101780.19;105146;1254;59673;-53
2023/02/12 15:34:55;;;;;;;7.60;3.60;;;;;;;2.56;35.01;101789.07;105363;1254;59745;-54
2023/02/12 15:37:25;;;;;;;6.70;1.60;;;;;;;2.51;35.11;101792.83;105274;1259;65435;-51
2023/02/12 15:40:00;;;;;;;5.90;1.80;;;;;;;2.48;35.39;101794.12;105407;1254;62421;-51
2023/02/12 15:42:40;;;;;;;3.50;1.50;;;;;;;2.42;35.40;101794.42;105315;1257;65152;-51
2023/02/12 15:45:14;;;;;;;4.90;1.30;;;;;;;2.37;35.40;101791.94;105564;1257;59732;-53
2023/02/12 15:47:43;;;;;;;4.60;1.00;;;;;;;2.32;35.46;101794.98;105335;1260;59587;-51
2023/02/12 15:50:12;;;;;;;4.10;1.00;;;;;;;2.29;35.75;101801.66;105337;1254;64076;-49
2023/02/12 15:52:44;;;;;;;3.30;0.90;;;;;;;2.23;35.85;101802.67;105464;1254;62585;-52
2023/02/12 15:55:18;;;;;;;4.00;0.90;;;;;;;2.18;36.01;101814.17;105389;1259;73655;-50
2023/02/12 15:57:51;;;;;;;4.20;1.00;;;;;;;2.14;36.17;101815.32;105539;1254;59630;-51
2023/02/12 16:00:40;;;;;;;6.60;2.60;;;;;;;2.10;36.27;101827.52;105601;1258;59618;-51
2023/02/12 16:03:26;;;;;;;6.30;2.20;;;;;;;2.06;36.49;101829.35;105485;1259;65481;-52
2023/02/12 16:06:03;;;;;;;5.30;0.80;;;;;;;2.01;36.70;101826.49;105408;1260;62433;-52
2023/02/12 16:08:34;;;;;;;17.40;10.90;;;;;;;1.97;36.62;101831.62;105482;1260;64079;-52
2023/02/12 16:11:12;;;;;;;5.90;2.60;;;;;;;1.92;36.80;101834.82;105362;1260;60845;-50
2023/02/12 16:13:49;;;;;;;46.10;34.20;;;;;;;1.89;36.70;101835.42;105426;1254;59810;-51
2023/02/12 16:16:24;;;;;;;10.30;5.10;;;;;;;1.85;36.84;101838.95;105405;1257;64488;-52
2023/02/12 16:19:04;;;;;;;5.90;2.20;;;;;;;1.83;37.11;101843.33;105630;1254;62608;-52
2023/02/12 16:21:34;;;;;;;8.60;5.00;;;;;;;1.79;36.95;101840.80;105501;1254;64811;-50
2023/02/12 16:24:03;;;;;;;20.20;11.20;;;;;;;1.76;37.05;101841.38;105474;1255;60441;-51
2023/02/12 16:26:31;;;;;;;6.90;2.90;;;;;;;1.74;37.19;101847.30;105355;1259;61190;-51
2023/02/12 16:29:00;;;;;;;5.20;2.50;;;;;;;1.71;37.28;101845.27;105274;1259;74001;-51
2023/02/12 16:31:30;;;;;;;23.70;15.20;;;;;;;1.68;37.04;101849.15;105343;1259;71215;-52
2023/02/12 16:33:59;;;;;;;9.70;5.00;;;;;;;1.66;37.22;101847.80;105673;1259;73399;-51
2023/02/12 16:36:29;;;;;;;5.90;1.90;;;;;;;1.62;37.25;101855.30;105459;1260;60830;-52
2023/02/12 16:39:03;;;;;;;16.10;4.60;;;;;;;1.59;37.24;101852.95;105293;1254;62051;-54
2023/02/12 16:41:32;;;;;;;10.50;3.70;;;;;;;1.57;37.42;101861.30;105356;1254;65404;-50
2023/02/12 16:44:00;;;;;;;3.30;1.10;;;;;;;1.54;37.51;101860.66;105326;1255;69785;-51
2023/02/12 16:46:30;;;;;;;10.60;3.50;;;;;;;1.53;37.45;101864.48;105375;1259;73801;-61
2023/02/12 16:48:59;;;;;;;5.70;2.60;;;;;;;1.53;38.12;101866.40;105890;1254;60425;-56
2023/02/12 16:51:28;;;;;;;5.40;2.70;;;;;;;1.54;37.61;101870.85;105485;1255;61051;-56
2023/02/12 16:54:00;;;;;;;2.90;1.20;;;;;;;1.51;37.36;101868.15;105271;1254;73991;-56
2023/02/12 16:56:32;;;;;;;4.30;0.80;;;;;;;1.50;37.39;101870.40;105611;1260;62473;-52
2023/02/12 16:59:01;;;;;;;5.00;1.20;;;;;;;1.47;37.40;101874.08;106000;1254;73695;-51
2023/02/12 17:01:32;;;;;;;5.90;1.10;;;;;;;1.46;37.47;101875.34;105462;1259;61738;-51
2023/02/12 17:04:03;;;;;;;6.20;1.80;;;;;;;1.43;37.25;101876.05;105804;1254;61627;-50
2023/02/12 17:06:32;;;;;;;5.60;1.40;;;;;;;1.39;37.42;101872.15;105345;1258;64387;-51
2023/02/12 17:09:00;;;;;;;5.20;1.10;;;;;;;1.37;37.10;101875.31;105458;1261;70667;-51
2023/02/12 17:11:28;;;;;;;2.80;0.80;;;;;;;1.37;37.41;101877.91;105597;1260;73630;-53
2023/02/12 17:13:57;;;;;;;4.60;1.40;;;;;;;1.35;37.49;101875.02;105251;1260;60956;-51
2023/02/12 17:16:25;;;;;;;2.70;0.70;;;;;;;1.33;37.57;101876.26;105158;1259;60171;-51
2023/02/12 17:19:05;;;;;;;2.90;0.80;;;;;;;1.30;37.39;101876.13;105167;1255;64253;-50
2023/02/12 17:21:39;;;;;;;5.40;0.80;;;;;;;1.28;37.75;101881.70;105403;1260;71239;-51
2023/02/12 17:24:19;;;;;;;4.40;1.40;;;;;;;1.25;37.70;101885.20;105144;1257;72318;-51
2023/02/12 17:26:49;;;;;;;3.50;1.40;;;;;;;1.23;37.78;101886.63;105399;1263;59624;-50
2023/02/12 17:29:20;;;;;;;3.70;0.70;;;;;;;1.19;37.84;101892.56;105523;1255;61231;-50
2023/02/12 17:31:48;;;;;;;4.10;0.80;;;;;;;1.16;37.92;101893.48;105346;1260;72895;-50
2023/02/12 17:34:17;;;;;;;2.50;0.60;;;;;;;1.14;37.97;101898.70;105438;1259;71346;-50
2023/02/12 17:36:46;;;;;;;4.70;1.30;;;;;;;1.09;37.88;101903.27;105258;1259;74053;-50
2023/02/12 17:39:15;;;;;;;4.40;1.10;;;;;;;1.08;37.97;101908.46;105468;1259;60552;-51
2023/02/12 17:41:43;;;;;;;3.90;0.90;;;;;;;1.06;37.96;101909.71;105261;1260;60993;-50
2023/02/12 17:44:13;;;;;;;4.50;1.40;;;;;;;1.05;37.93;101906.29;105544;1255;73871;-50
2023/02/12 17:46:42;;;;;;;3.20;1.00;;;;;;;1.03;38.02;101912.87;105356;1260;71197;-50
2023/02/12 17:49:11;;;;;;;3.30;0.90;;;;;;;1.01;38.07;101908.75;105192;1260;73382;-50
2023/02/12 17:51:42;;;;;;;3.40;0.90;;;;;;;0.99;38.16;101911.73;105395;1259;60510;-52
2023/02/12 17:54:11;;;;;;;4.70;1.10;;;;;;;0.97;38.41;101916.42;105200;1260;60830;-50